createdAt,value
2018-09-22T00:02:14.423Z,15.00
2018-09-22T00:04:50.197Z,15.00
2018-09-22T00:07:19.370Z,14.90
2018-09-22T00:09:48.505Z,14.90
2018-09-22T00:12:17.653Z,15.00
2018-09-22T00:14:46.833Z,15.00
2018-09-22T00:17:16.111Z,15.00
2018-09-22T00:19:45.289Z,15.00
2018-09-22T00:22:14.647Z,15.00
2018-09-22T00:24:43.855Z,15.00
2018-09-22T00:27:13.099Z,14.90
2018-09-22T00:29:42.293Z,14.90
2018-09-22T00:32:11.466Z,14.90
2018-09-22T00:34:40.915Z,14.90
2018-09-22T00:37:10.155Z,14.90
2018-09-22T00:39:39.381Z,14.90
2018-09-22T00:42:08.579Z,14.90
2018-09-22T00:44:37.746Z,14.80
2018-09-22T00:47:07.078Z,14.90
2018-09-22T00:49:36.273Z,14.90
2018-09-22T00:52:05.474Z,14.90
2018-09-22T00:54:34.808Z,14.90
2018-09-22T00:57:04.003Z,14.90
2018-09-22T00:59:33.149Z,14.90
2018-09-22T01:02:02.311Z,14.90
2018-09-22T01:04:31.480Z,14.90
2018-09-22T01:07:00.631Z,14.80
2018-09-22T01:09:29.763Z,14.80
2018-09-22T01:11:58.906Z,14.80
2018-09-22T01:14:28.049Z,14.80
2018-09-22T01:16:57.225Z,14.80
2018-09-22T01:19:26.739Z,14.80
2018-09-22T01:21:55.908Z,14.80
2018-09-22T01:24:25.101Z,14.70
2018-09-22T01:26:54.265Z,14.70
2018-09-22T01:29:23.389Z,14.70
2018-09-22T01:31:52.545Z,14.80
2018-09-22T01:34:21.725Z,14.80
2018-09-22T01:36:50.998Z,14.80
2018-09-22T01:39:20.157Z,14.80
2018-09-22T01:41:49.354Z,14.80
2018-09-22T01:44:18.543Z,14.90
2018-09-22T01:46:47.736Z,14.90
2018-09-22T01:49:16.917Z,14.90
2018-09-22T01:51:46.053Z,14.90
2018-09-22T01:54:15.303Z,14.90
2018-09-22T01:56:44.517Z,15.00
2018-09-22T01:59:13.703Z,15.10
2018-09-22T02:01:42.862Z,15.10
2018-09-22T02:04:12.029Z,15.10
2018-09-22T02:06:41.213Z,15.10
2018-09-22T02:09:11.044Z,15.10
2018-09-22T02:11:40.472Z,15.10
2018-09-22T02:14:09.850Z,15.10
2018-09-22T02:16:39.024Z,15.10
2018-09-22T02:19:08.168Z,15.10
2018-09-22T02:21:37.492Z,15.10
2018-09-22T02:24:06.668Z,15.10
2018-09-22T02:26:35.898Z,15.10
2018-09-22T02:29:05.167Z,15.20
2018-09-22T02:31:34.361Z,15.20
2018-09-22T02:34:03.571Z,15.10
2018-09-22T02:36:32.745Z,15.10
2018-09-22T02:39:01.909Z,15.10
2018-09-22T02:41:31.091Z,15.10
2018-09-22T02:44:00.249Z,15.10
2018-09-22T02:46:29.447Z,15.10
2018-09-22T02:48:58.597Z,15.20
2018-09-22T02:51:27.912Z,15.20
2018-09-22T02:53:57.077Z,15.20
2018-09-22T02:56:26.273Z,15.20
2018-09-22T02:58:55.432Z,15.20
2018-09-22T03:01:24.612Z,15.20
2018-09-22T03:03:53.755Z,15.20
2018-09-22T03:06:22.987Z,15.20
2018-09-22T03:08:52.272Z,15.10
2018-09-22T03:11:21.403Z,15.10
2018-09-22T03:13:50.587Z,15.10
2018-09-22T03:16:19.758Z,15.00
2018-09-22T03:18:48.974Z,15.00
2018-09-22T03:21:18.155Z,14.90
2018-09-22T03:23:47.492Z,14.90
2018-09-22T03:26:16.638Z,14.80
2018-09-22T03:28:45.794Z,14.80
2018-09-22T03:31:15.031Z,14.80
2018-09-22T03:33:44.209Z,14.70
2018-09-22T03:36:13.424Z,14.70
2018-09-22T03:38:42.651Z,14.60
2018-09-22T03:41:11.777Z,14.60
2018-09-22T03:43:40.929Z,14.60
2018-09-22T03:46:10.156Z,14.60
2018-09-22T03:48:39.307Z,14.50
2018-09-22T03:51:08.469Z,14.50
2018-09-22T03:53:37.629Z,14.50
2018-09-22T03:56:07.008Z,14.40
2018-09-22T03:58:36.206Z,14.40
2018-09-22T04:01:05.369Z,14.40
2018-09-22T04:03:34.524Z,14.50
2018-09-22T04:06:03.817Z,14.50
2018-09-22T04:08:32.975Z,14.40
2018-09-22T04:11:02.146Z,14.40
2018-09-22T04:13:31.316Z,14.40
2018-09-22T04:16:00.494Z,14.30
2018-09-22T04:18:29.829Z,14.30
2018-09-22T04:20:59.028Z,14.30
2018-09-22T04:23:28.178Z,14.30
2018-09-22T04:25:57.328Z,14.30
2018-09-22T04:28:26.473Z,14.30
2018-09-22T04:30:55.766Z,14.30
2018-09-22T04:33:24.918Z,14.30
2018-09-22T04:35:54.070Z,14.30
2018-09-22T04:38:23.219Z,14.20
2018-09-22T04:40:52.520Z,14.20
2018-09-22T04:43:21.727Z,14.20
2018-09-22T04:45:51.039Z,14.20
2018-09-22T04:48:20.215Z,14.10
2018-09-22T04:50:49.392Z,14.10
2018-09-22T04:53:18.549Z,14.10
2018-09-22T04:55:47.714Z,14.20
2018-09-22T04:58:16.869Z,14.30
2018-09-22T05:00:46.033Z,14.50
2018-09-22T05:03:15.184Z,14.60
2018-09-22T05:05:44.340Z,14.70
2018-09-22T05:08:13.561Z,14.80
2018-09-22T05:10:42.714Z,14.80
2018-09-22T05:13:11.948Z,14.70
2018-09-22T05:15:41.085Z,14.60
2018-09-22T05:18:10.341Z,14.50
2018-09-22T05:20:39.498Z,14.40
2018-09-22T05:23:08.665Z,14.30
2018-09-22T05:25:37.830Z,14.20
2018-09-22T05:28:06.999Z,14.20
2018-09-22T05:30:36.162Z,14.20
2018-09-22T05:33:05.355Z,14.10
2018-09-22T05:35:34.522Z,14.10
2018-09-22T05:38:03.672Z,14.10
2018-09-22T05:40:32.841Z,14.10
2018-09-22T05:43:02.110Z,14.00
2018-09-22T05:45:31.269Z,14.00
2018-09-22T05:48:00.483Z,14.00
2018-09-22T05:50:29.629Z,13.90
2018-09-22T05:52:58.792Z,13.90
2018-09-22T05:55:27.940Z,13.90
2018-09-22T05:57:57.236Z,13.90
2018-09-22T06:00:26.375Z,13.90
2018-09-22T06:02:55.595Z,13.90
2018-09-22T06:05:24.823Z,13.90
2018-09-22T06:07:54.017Z,13.90
2018-09-22T06:10:23.197Z,13.90
2018-09-22T06:12:52.338Z,13.90
2018-09-22T06:15:21.549Z,13.90
2018-09-22T06:17:50.733Z,13.90
2018-09-22T06:20:19.887Z,13.90
2018-09-22T06:22:49.048Z,13.90
2018-09-22T06:25:18.588Z,13.80
2018-09-22T06:27:47.866Z,13.90
2018-09-22T06:30:17.037Z,13.90
2018-09-22T06:32:46.193Z,13.90
2018-09-22T06:35:15.329Z,13.90
2018-09-22T06:37:44.623Z,13.90
2018-09-22T06:40:13.785Z,13.90
2018-09-22T06:42:42.933Z,14.00
2018-09-22T06:45:12.105Z,13.90
2018-09-22T06:47:41.277Z,14.00
2018-09-22T06:50:10.429Z,14.00
2018-09-22T06:52:39.679Z,14.00
2018-09-22T06:55:08.976Z,14.10
2018-09-22T06:57:38.137Z,14.10
2018-09-22T07:00:07.387Z,14.20
2018-09-22T07:02:36.766Z,14.20
2018-09-22T07:05:06.097Z,14.20
2018-09-22T07:07:35.285Z,14.30
2018-09-22T07:10:04.477Z,14.30
2018-09-22T07:12:33.621Z,14.40
2018-09-22T07:15:02.864Z,14.40
2018-09-22T07:17:32.008Z,14.50
2018-09-22T07:20:01.150Z,14.70
2018-09-22T07:22:35.716Z,14.80
2018-09-22T07:25:04.918Z,14.90
2018-09-22T07:27:34.118Z,15.00
2018-09-22T07:30:03.257Z,15.10
2018-09-22T07:32:32.429Z,15.20
2018-09-22T07:35:01.599Z,15.40
2018-09-22T07:37:30.840Z,15.60
2018-09-22T07:40:00.023Z,15.70
2018-09-22T07:42:29.207Z,15.70
2018-09-22T07:44:58.353Z,15.80
2018-09-22T07:47:27.514Z,15.80
2018-09-22T07:49:56.681Z,15.80
2018-09-22T07:52:25.841Z,16.00
2018-09-22T07:54:55.059Z,16.10
2018-09-22T07:57:24.428Z,16.20
2018-09-22T07:59:53.615Z,16.30
2018-09-22T08:02:22.813Z,16.20
2018-09-22T08:04:51.966Z,16.20
2018-09-22T08:07:21.153Z,16.30
2018-09-22T08:09:50.344Z,16.40
2018-09-22T08:12:19.541Z,16.50
2018-09-22T08:14:48.733Z,16.50
2018-09-22T08:17:17.905Z,16.70
2018-09-22T08:19:47.215Z,16.90
2018-09-22T08:22:16.412Z,17.10
2018-09-22T08:24:45.586Z,17.20
2018-09-22T08:27:14.773Z,17.40
2018-09-22T08:29:44.003Z,17.60
2018-09-22T08:32:13.367Z,17.70
2018-09-22T08:34:42.577Z,17.80
2018-09-22T08:37:11.913Z,17.80
2018-09-22T08:39:41.014Z,17.90
2018-09-22T08:42:10.185Z,17.90
2018-09-22T08:44:39.413Z,17.90
2018-09-22T08:47:08.598Z,17.80
2018-09-22T08:49:38.047Z,17.90
2018-09-22T08:52:07.369Z,17.70
2018-09-22T08:54:36.547Z,17.60
2018-09-22T08:57:05.768Z,17.40
2018-09-22T08:59:34.980Z,17.20
2018-09-22T09:03:07.573Z,17.10
2018-09-22T09:05:36.975Z,17.10
2018-09-22T09:08:06.146Z,17.20
2018-09-22T09:10:35.321Z,17.40
2018-09-22T09:13:04.568Z,17.50
2018-09-22T09:15:33.713Z,17.50
2018-09-22T09:18:02.886Z,17.60
2018-09-22T09:20:32.141Z,17.70
2018-09-22T09:23:01.313Z,17.80
2018-09-22T09:25:30.477Z,17.80
2018-09-22T09:27:59.632Z,17.80
2018-09-22T09:30:28.793Z,17.90
2018-09-22T09:32:57.945Z,17.90
2018-09-22T09:35:27.168Z,17.90
2018-09-22T09:37:56.353Z,18.00
2018-09-22T09:40:25.559Z,18.00
2018-09-22T09:42:54.731Z,18.00
2018-09-22T09:45:24.182Z,17.90
2018-09-22T09:47:53.399Z,17.80
2018-09-22T09:50:22.545Z,17.70
2018-09-22T09:52:51.764Z,17.80
2018-09-22T09:55:20.933Z,17.70
2018-09-22T09:57:50.076Z,17.60
2018-09-22T10:00:23.381Z,17.60
2018-09-22T10:02:52.591Z,17.60
2018-09-22T10:05:21.811Z,17.60
2018-09-22T10:07:51.397Z,17.60
2018-09-22T10:10:20.557Z,17.60
2018-09-22T10:12:49.785Z,17.50
2018-09-22T10:15:19.315Z,17.50
2018-09-22T10:17:48.499Z,17.40
2018-09-22T10:20:17.783Z,17.30
2018-09-22T10:22:46.918Z,17.40
2018-09-22T10:25:16.121Z,17.50
2018-09-22T10:27:45.257Z,17.70
2018-09-22T10:30:14.448Z,17.90
2018-09-22T10:32:43.603Z,18.10
2018-09-22T10:35:12.791Z,18.30
2018-09-22T10:37:42.038Z,18.40
2018-09-22T10:40:11.222Z,18.50
2018-09-22T10:42:40.357Z,18.60
2018-09-22T10:45:09.615Z,18.70
2018-09-22T10:47:38.832Z,18.70
2018-09-22T10:50:08.158Z,18.50
2018-09-22T10:52:37.551Z,18.30
2018-09-22T10:55:06.724Z,18.30
2018-09-22T10:57:36.122Z,18.30
2018-09-22T11:00:05.314Z,18.30
2018-09-22T11:02:34.611Z,18.20
2018-09-22T11:05:03.807Z,18.20
2018-09-22T11:07:33.029Z,18.30
2018-09-22T11:10:02.208Z,18.20
2018-09-22T11:12:31.435Z,18.10
2018-09-22T11:15:00.576Z,17.90
2018-09-22T11:17:29.743Z,17.90
2018-09-22T11:19:58.921Z,17.90
2018-09-22T11:22:28.083Z,18.00
2018-09-22T11:24:57.274Z,18.20
2018-09-22T11:27:26.413Z,18.30
2018-09-22T11:29:55.626Z,18.50
2018-09-22T11:32:24.809Z,18.60
2018-09-22T11:34:53.996Z,18.80
2018-09-22T11:37:23.168Z,18.80
2018-09-22T11:39:52.318Z,18.90
2018-09-22T11:42:21.613Z,18.90
2018-09-22T11:44:50.787Z,18.90
2018-09-22T11:47:19.982Z,18.90
2018-09-22T11:49:49.542Z,19.10
2018-09-22T11:52:18.713Z,19.20
2018-09-22T11:54:47.926Z,19.40
2018-09-22T11:57:17.128Z,19.50
2018-09-22T11:59:46.273Z,19.60
2018-09-22T12:02:15.483Z,19.80
2018-09-22T12:04:44.653Z,19.90
2018-09-22T12:07:13.821Z,19.90
2018-09-22T12:09:43.021Z,20.10
2018-09-22T12:12:12.218Z,20.20
2018-09-22T12:14:41.437Z,20.10
2018-09-22T12:17:10.597Z,20.20
2018-09-22T12:19:39.749Z,20.30
2018-09-22T12:22:08.973Z,20.40
2018-09-22T12:24:38.185Z,20.60
2018-09-22T12:27:07.374Z,20.70
2018-09-22T12:29:36.705Z,20.70
2018-09-22T12:32:06.067Z,20.80
2018-09-22T12:34:35.173Z,21.00
2018-09-22T12:37:04.341Z,21.00
2018-09-22T12:39:33.521Z,21.00
2018-09-22T12:42:02.723Z,20.70
2018-09-22T12:44:31.943Z,20.50
2018-09-22T12:47:01.181Z,20.50
2018-09-22T12:49:30.396Z,20.50
2018-09-22T12:51:59.599Z,20.70
2018-09-22T12:54:28.778Z,20.90
2018-09-22T12:56:57.945Z,21.10
2018-09-22T12:59:27.141Z,21.20
2018-09-22T13:01:56.391Z,21.10
2018-09-22T13:04:25.559Z,21.00
2018-09-22T13:06:54.855Z,20.80
2018-09-22T13:09:24.041Z,20.70
2018-09-22T13:11:53.193Z,20.70
2018-09-22T13:14:22.361Z,20.70
2018-09-22T13:16:51.568Z,20.80
2018-09-22T13:19:20.708Z,20.80
2018-09-22T13:21:49.858Z,20.70
2018-09-22T13:24:19.030Z,20.70
2018-09-22T13:26:48.289Z,20.80
2018-09-22T13:29:17.457Z,20.80
2018-09-22T13:31:46.616Z,20.90
2018-09-22T13:34:15.817Z,20.90
2018-09-22T13:36:45.026Z,21.00
2018-09-22T13:39:14.217Z,21.00
2018-09-22T13:41:43.369Z,21.00
2018-09-22T13:44:12.573Z,20.80
2018-09-22T13:46:41.725Z,20.70
2018-09-22T13:49:10.892Z,20.60
2018-09-22T13:51:40.099Z,20.50
2018-09-22T13:54:09.293Z,20.50
2018-09-22T13:56:38.434Z,20.50
2018-09-22T13:59:07.581Z,20.50
2018-09-22T14:01:36.738Z,20.40
2018-09-22T14:04:05.997Z,20.40
2018-09-22T14:06:35.189Z,20.50
2018-09-22T14:09:07.749Z,20.70
2018-09-22T14:11:36.971Z,20.70
2018-09-22T14:14:06.138Z,20.70
2018-09-22T14:16:35.340Z,20.60
2018-09-22T14:19:04.725Z,20.50
2018-09-22T14:21:33.894Z,20.50
2018-09-22T14:24:03.141Z,20.40
2018-09-22T14:26:32.293Z,20.30
2018-09-22T14:29:01.528Z,20.10
2018-09-22T14:31:30.738Z,19.90
2018-09-22T14:34:00.024Z,20.00
2018-09-22T14:36:29.170Z,20.10
2018-09-22T14:38:58.355Z,20.10
2018-09-22T14:41:27.531Z,20.10
2018-09-22T14:43:56.701Z,20.20
2018-09-22T14:46:25.910Z,20.30
2018-09-22T14:48:55.080Z,20.30
2018-09-22T14:51:24.269Z,20.40
2018-09-22T14:53:53.436Z,20.40
2018-09-22T14:56:22.615Z,20.50
2018-09-22T14:58:51.937Z,20.40
2018-09-22T15:01:21.101Z,20.20
2018-09-22T15:03:50.360Z,20.00
2018-09-22T15:06:19.529Z,19.90
2018-09-22T15:08:48.715Z,19.80
2018-09-22T15:11:18.054Z,19.60
2018-09-22T15:13:47.257Z,19.50
2018-09-22T15:16:16.515Z,19.40
2018-09-22T15:18:45.753Z,19.30
2018-09-22T15:21:14.909Z,19.20
2018-09-22T15:23:44.136Z,19.20
2018-09-22T15:26:13.283Z,19.10
2018-09-22T15:28:42.925Z,18.90
2018-09-22T15:31:12.218Z,18.90
2018-09-22T15:33:41.691Z,18.90
2018-09-22T15:36:10.857Z,18.90
2018-09-22T15:38:40.108Z,18.70
2018-09-22T15:41:09.302Z,18.50
2018-09-22T15:43:38.493Z,18.40
2018-09-22T15:46:07.644Z,18.40
2018-09-22T15:48:36.876Z,18.40
2018-09-22T15:51:06.136Z,18.20
2018-09-22T15:53:35.339Z,18.20
2018-09-22T15:56:04.493Z,18.10
2018-09-22T15:58:33.669Z,18.00
2018-09-22T16:01:02.830Z,18.00
2018-09-22T16:03:31.989Z,18.00
2018-09-22T16:06:01.255Z,17.90
2018-09-22T16:08:30.465Z,17.90
2018-09-22T16:10:59.611Z,17.90
2018-09-22T16:13:28.881Z,17.90
2018-09-22T16:15:58.073Z,17.90
2018-09-22T16:18:27.260Z,18.00
2018-09-22T16:20:56.342Z,17.90
2018-09-22T16:23:25.490Z,17.90
2018-09-22T16:25:54.664Z,17.80
2018-09-22T16:28:23.903Z,17.80
2018-09-22T16:30:53.156Z,17.70
2018-09-22T16:33:22.351Z,17.70
2018-09-22T16:35:51.500Z,17.60
2018-09-22T16:38:20.704Z,17.50
2018-09-22T16:40:49.899Z,17.50
2018-09-22T16:43:19.057Z,17.50
2018-09-22T16:45:48.315Z,17.40
2018-09-22T16:48:17.468Z,17.40
2018-09-22T16:50:46.662Z,17.30
2018-09-22T16:53:15.880Z,17.30
2018-09-22T16:55:45.174Z,17.20
2018-09-22T16:58:14.364Z,17.30
2018-09-22T17:00:43.451Z,17.20
2018-09-22T17:03:12.589Z,17.20
2018-09-22T17:05:41.750Z,17.20
2018-09-22T17:08:10.937Z,17.30
2018-09-22T17:10:40.117Z,17.30
2018-09-22T17:13:09.280Z,17.20
2018-09-22T17:15:38.428Z,17.20
2018-09-22T17:18:07.593Z,17.20
2018-09-22T17:20:36.798Z,17.10
2018-09-22T17:23:06.160Z,17.10
2018-09-22T17:25:35.362Z,17.10
2018-09-22T17:28:04.545Z,17.10
2018-09-22T17:30:33.743Z,17.10
2018-09-22T17:33:02.901Z,17.10
2018-09-22T17:35:32.074Z,17.10
2018-09-22T17:38:01.245Z,17.20
2018-09-22T17:40:30.527Z,17.20
2018-09-22T17:42:59.739Z,17.20
2018-09-22T17:45:28.893Z,17.20
2018-09-22T17:47:58.054Z,17.10
2018-09-22T17:50:27.217Z,17.20
2018-09-22T17:52:56.382Z,17.10
2018-09-22T17:55:25.552Z,17.10
2018-09-22T17:57:54.710Z,17.10
2018-09-22T18:00:23.910Z,17.10
2018-09-22T18:02:53.053Z,17.10
2018-09-22T18:05:22.205Z,17.10
2018-09-22T18:07:51.369Z,17.20
2018-09-22T18:10:20.545Z,17.20
2018-09-22T18:12:49.705Z,17.20
2018-09-22T18:15:18.927Z,17.20
2018-09-22T18:17:48.105Z,17.10
2018-09-22T18:20:17.269Z,17.20
2018-09-22T18:22:46.476Z,17.10
2018-09-22T18:25:15.754Z,17.10
2018-09-22T18:27:44.902Z,17.10
2018-09-22T18:30:14.084Z,17.00
2018-09-22T18:32:43.267Z,17.10
2018-09-22T18:35:12.461Z,17.00
2018-09-22T18:37:42.158Z,17.00
2018-09-22T18:40:11.369Z,17.10
2018-09-22T18:42:40.529Z,17.00
2018-09-22T18:45:09.729Z,17.10
2018-09-22T18:47:38.887Z,17.00
2018-09-22T18:50:08.117Z,17.00
2018-09-22T18:52:37.276Z,16.90
2018-09-22T18:55:06.803Z,16.90
2018-09-22T18:57:35.985Z,17.00
2018-09-22T19:00:05.174Z,16.90
2018-09-22T19:02:34.379Z,16.90
2018-09-22T19:05:03.570Z,16.90
2018-09-22T19:07:32.737Z,16.90
2018-09-22T19:10:01.905Z,16.90
2018-09-22T19:12:31.096Z,16.80
2018-09-22T19:15:18.381Z,16.80
2018-09-22T19:17:52.976Z,16.80
2018-09-22T19:20:26.149Z,16.80
2018-09-22T19:22:58.853Z,16.80
2018-09-22T19:25:30.596Z,16.70
2018-09-22T19:28:05.921Z,16.70
2018-09-22T19:30:42.601Z,16.70
2018-09-22T19:33:18.253Z,16.70
2018-09-22T19:35:51.977Z,16.60
2018-09-22T19:38:25.756Z,16.60
2018-09-22T19:40:59.372Z,16.60
2018-09-22T19:44:04.631Z,16.60
2018-09-22T19:46:38.753Z,16.60
2018-09-22T19:49:11.725Z,16.60
2018-09-22T19:51:49.701Z,16.60
2018-09-22T19:54:18.875Z,16.60
2018-09-22T19:56:48.151Z,16.50
2018-09-22T19:59:17.317Z,16.50
2018-09-22T20:01:46.537Z,16.50
2018-09-22T20:04:15.716Z,16.50
2018-09-22T20:06:44.975Z,16.40
2018-09-22T20:09:14.248Z,16.40
2018-09-22T20:11:43.504Z,16.40
2018-09-22T20:14:12.701Z,16.40
2018-09-22T20:16:41.965Z,16.40
2018-09-22T20:19:11.218Z,16.40
2018-09-22T20:21:40.402Z,16.30
2018-09-22T20:24:09.578Z,16.30
2018-09-22T20:26:38.729Z,16.30
2018-09-22T20:29:07.872Z,16.30
2018-09-22T20:31:37.049Z,16.30
2018-09-22T20:34:06.286Z,16.30
2018-09-22T20:36:35.461Z,16.20
2018-09-22T20:39:07.155Z,16.20
2018-09-22T20:41:36.355Z,16.20
2018-09-22T20:44:05.760Z,16.20
2018-09-22T20:46:34.934Z,16.20
2018-09-22T20:49:05.005Z,16.20
2018-09-22T20:51:34.289Z,16.10
2018-09-22T20:54:03.513Z,16.00
2018-09-22T20:56:32.612Z,16.00
2018-09-22T20:59:02.042Z,15.90
2018-09-22T21:01:31.198Z,15.90
2018-09-22T21:04:00.381Z,15.80
2018-09-22T21:06:29.529Z,15.80
2018-09-22T21:08:58.712Z,15.80
2018-09-22T21:11:27.889Z,15.80
2018-09-22T21:13:57.050Z,15.80
2018-09-22T21:16:26.245Z,15.80
2018-09-22T21:18:55.533Z,15.80
2018-09-22T21:21:24.617Z,15.80
2018-09-22T21:23:53.859Z,15.80
2018-09-22T21:26:23.041Z,15.80
2018-09-22T21:28:52.207Z,15.80
2018-09-22T21:31:21.425Z,15.70
2018-09-22T21:33:50.619Z,15.70
2018-09-22T21:36:19.858Z,15.70
2018-09-22T21:38:49.013Z,15.70
2018-09-22T21:41:18.241Z,15.60
2018-09-22T21:43:47.449Z,15.60
2018-09-22T21:46:16.629Z,15.50
2018-09-22T21:48:45.827Z,15.60
2018-09-22T21:51:14.957Z,15.60
2018-09-22T21:53:44.138Z,15.50
2018-09-22T21:56:13.343Z,15.50
2018-09-22T21:58:42.487Z,15.50
2018-09-22T22:01:16.893Z,15.50
2018-09-22T22:03:46.156Z,15.50
2018-09-22T22:06:15.369Z,15.50
2018-09-22T22:08:44.523Z,15.40
2018-09-22T22:11:13.692Z,15.40
2018-09-22T22:13:42.849Z,15.40
2018-09-22T22:16:12.012Z,15.40
2018-09-22T22:18:41.283Z,15.40
2018-09-22T22:21:10.441Z,15.40
2018-09-22T22:23:39.603Z,15.40
2018-09-22T22:26:08.769Z,15.40
2018-09-22T22:28:37.897Z,15.40
2018-09-22T22:31:07.097Z,15.40
2018-09-22T22:33:36.481Z,15.40
2018-09-22T22:36:05.686Z,15.40
2018-09-22T22:38:34.865Z,15.40
2018-09-22T22:41:04.069Z,15.40
2018-09-22T22:43:33.217Z,15.40
2018-09-22T22:46:02.436Z,15.30
2018-09-22T22:48:31.599Z,15.40
2018-09-22T22:51:00.805Z,15.30
2018-09-22T22:53:30.037Z,15.20
2018-09-22T22:55:59.216Z,15.20
2018-09-22T22:58:28.399Z,15.20
2018-09-22T23:00:57.573Z,15.10
2018-09-22T23:03:26.733Z,15.10
2018-09-22T23:05:55.900Z,15.10
2018-09-22T23:08:25.053Z,15.00
2018-09-22T23:10:54.261Z,15.00
2018-09-22T23:13:23.463Z,15.00
2018-09-22T23:15:52.625Z,15.00
2018-09-22T23:18:21.809Z,15.00
2018-09-22T23:20:51.059Z,15.00
2018-09-22T23:23:20.262Z,15.00
2018-09-22T23:25:49.410Z,15.00
2018-09-22T23:28:18.657Z,15.00
2018-09-22T23:30:47.843Z,15.00
2018-09-22T23:33:17.009Z,15.00
2018-09-22T23:35:46.352Z,14.90
2018-09-22T23:38:15.561Z,14.90
2018-09-22T23:40:44.785Z,14.80
2018-09-22T23:43:13.987Z,14.80
2018-09-22T23:45:43.154Z,14.70
2018-09-22T23:48:12.375Z,14.70
2018-09-22T23:50:41.545Z,14.60
2018-09-22T23:53:10.771Z,14.60
2018-09-22T23:55:39.945Z,14.60
2018-09-22T23:58:09.126Z,14.50
